Terminal Aerodrome Forecast
Issued by NWS

Home | Current Version | Previous Version | Text Only | Print | Product List | Glossary On
Versions: 1 2 3 4 5 6 7 8 9 10 11 12 13 14 15 16 17 18 19 20 21 22 23 24 25
000
FTUS46 KEKA 041720
TAFCEC
TAF
KCEC 041720Z 0418/0518 VRB06KT 4SM HZ BKN003
     FM041900 19006KT P6SM BKN200
     FM050300 VRB03KT 5SM BR OVC005
     FM050800 18002KT 2SM BR OVC002
     FM051200 18003KT 1SM BR OVC002=

USA.gov is the U.S. government's official web portal to all federal, state and local government web resources and services.